עמוד ראשי
METAR-TAF:

METAR-TAF

שדות תעופה :

Payson, אריזונה, ארצות הברית

קו רוחב: 34-15-25N, קו אורך: 111-20-21W, גובה: 1572מטר

תצפית מזג אוויר נוכחית

הדו"ח נערך לפני 12דקות, בשעה 12:35 UTC
רוח 3קשר מכיוון צפון/צפון-מערב
טמפרטורת 21 צלסיוס
לחות 64%
לחץ 1027 hPa
ראות: 16.1קילומטר
שמיים נקיים

METAR: KPAN 251235Z AUTO 33003KT 10SM CLR 21/14 A3034 RMK AO2 PWINO TSNO

זמן: 05:47 (12:47 UTC)


TAF: חסר

תצפיות ותחזיות מזג אוויר לגבי יותר מ- 4,000 שדות תעופה ברחבי העולם. דוחות METAR ו- TAF.

התחנות הזמינות מסומנות בנקודות צהובות ואדומות על גבי המפה.

העבר את העכבר לנקודה הצבעונית על מנת לראות את שם התחנה.

לאחר מכן, לחץ כדי לראות את תוכן ואת תחזיות מזג האוויר.

כדי לשנות את המפה: לחץ על הכפתורים הירוקים עם הפלוס השחור כדי להתקרב; על הכפתור הירוק עם המקף כדי להתרחק; או בחיצים הירוקים למפות סמוכות.


METAR-TAF: